sensor_id;sensor_type;location;lat;lon;timestamp;P1;durP1;ratioP1;P2;durP2;ratioP2
64857;SDS011;51335;51.148;6.950;2022-07-22T00:00:00;15.48;;;7.53;;
64857;SDS011;51335;51.148;6.950;2022-07-22T00:00:30;17.63;;;7.38;;
64857;SDS011;51335;51.148;6.950;2022-07-22T00:01:01;14.45;;;7.88;;
64857;SDS011;51335;51.148;6.950;2022-07-22T00:01:31;13.90;;;7.32;;
64857;SDS011;51335;51.148;6.950;2022-07-22T00:02:01;12.77;;;6.43;;
64857;SDS011;51335;51.148;6.950;2022-07-22T00:02:31;13.20;;;7.28;;
64857;SDS011;51335;51.148;6.950;2022-07-22T00:03:02;14.57;;;6.85;;
64857;SDS011;51335;51.148;6.950;2022-07-22T00:03:32;15.10;;;7.25;;
64857;SDS011;51335;51.148;6.950;2022-07-22T00:04:03;12.13;;;6.72;;
64857;SDS011;51335;51.148;6.950;2022-07-22T00:04:33;14.80;;;6.93;;
64857;SDS011;51335;51.148;6.950;2022-07-22T00:05:04;13.70;;;6.70;;
64857;SDS011;51335;51.148;6.950;2022-07-22T00:05:34;13.43;;;7.25;;
64857;SDS011;51335;51.148;6.950;2022-07-22T00:06:05;11.57;;;7.00;;
64857;SDS011;51335;51.148;6.950;2022-07-22T00:06:35;13.93;;;6.85;;
64857;SDS011;51335;51.148;6.950;2022-07-22T00:07:06;10.20;;;6.25;;
64857;SDS011;51335;51.148;6.950;2022-07-22T00:07:37;17.10;;;7.45;;
64857;SDS011;51335;51.148;6.950;2022-07-22T00:08:08;12.45;;;6.47;;
64857;SDS011;51335;51.148;6.950;2022-07-22T00:08:38;12.95;;;6.70;;
64857;SDS011;51335;51.148;6.950;2022-07-22T00:09:08;14.68;;;6.45;;
64857;SDS011;51335;51.148;6.950;2022-07-22T00:09:39;15.57;;;6.50;;
64857;SDS011;51335;51.148;6.950;2022-07-22T00:10:09;14.52;;;6.68;;
64857;SDS011;51335;51.148;6.950;2022-07-22T00:10:40;14.07;;;6.60;;
64857;SDS011;51335;51.148;6.950;2022-07-22T00:11:10;12.32;;;6.47;;
64857;SDS011;51335;51.148;6.950;2022-07-22T00:11:41;15.15;;;6.30;;
64857;SDS011;51335;51.148;6.950;2022-07-22T00:12:12;11.60;;;6.20;;
64857;SDS011;51335;51.148;6.950;2022-07-22T00:12:42;12.43;;;6.50;;
64857;SDS011;51335;51.148;6.950;2022-07-22T00:13:13;12.50;;;6.43;;
64857;SDS011;51335;51.148;6.950;2022-07-22T00:13:43;11.65;;;5.97;;
64857;SDS011;51335;51.148;6.950;2022-07-22T00:14:13;9.95;;;5.93;;
64857;SDS011;51335;51.148;6.950;2022-07-22T00:14:43;15.30;;;6.03;;
64857;SDS011;51335;51.148;6.950;2022-07-22T00:15:14;11.27;;;6.53;;
64857;SDS011;51335;51.148;6.950;2022-07-22T00:15:44;12.18;;;6.32;;
64857;SDS011;51335;51.148;6.950;2022-07-22T00:16:14;14.82;;;6.28;;
64857;SDS011;51335;51.148;6.950;2022-07-22T00:16:45;12.40;;;6.47;;
64857;SDS011;51335;51.148;6.950;2022-07-22T00:17:15;12.80;;;6.50;;
64857;SDS011;51335;51.148;6.950;2022-07-22T00:17:45;11.40;;;6.32;;
64857;SDS011;51335;51.148;6.950;2022-07-22T00:18:16;12.93;;;6.57;;
64857;SDS011;51335;51.148;6.950;2022-07-22T00:18:46;13.45;;;6.43;;
64857;SDS011;51335;51.148;6.950;2022-07-22T00:19:16;14.60;;;6.90;;
64857;SDS011;51335;51.148;6.950;2022-07-22T00:19:47;14.10;;;6.55;;
64857;SDS011;51335;51.148;6.950;2022-07-22T00:20:17;15.65;;;6.53;;
64857;SDS011;51335;51.148;6.950;2022-07-22T00:20:47;12.27;;;6.35;;
64857;SDS011;51335;51.148;6.950;2022-07-22T00:21:18;15.05;;;6.53;;
64857;SDS011;51335;51.148;6.950;2022-07-22T00:21:48;15.48;;;6.60;;
64857;SDS011;51335;51.148;6.950;2022-07-22T00:22:18;11.27;;;6.25;;
64857;SDS011;51335;51.148;6.950;2022-07-22T00:22:49;13.75;;;6.60;;
64857;SDS011;51335;51.148;6.950;2022-07-22T00:23:19;12.50;;;6.35;;
64857;SDS011;51335;51.148;6.950;2022-07-22T00:23:49;17.60;;;6.82;;
64857;SDS011;51335;51.148;6.950;2022-07-22T00:24:20;14.55;;;6.43;;
64857;SDS011;51335;51.148;6.950;2022-07-22T00:24:50;13.75;;;6.65;;
64857;SDS011;51335;51.148;6.950;2022-07-22T00:25:20;14.88;;;6.47;;
64857;SDS011;51335;51.148;6.950;2022-07-22T00:25:51;11.65;;;6.07;;
64857;SDS011;51335;51.148;6.950;2022-07-22T00:26:21;16.25;;;7.10;;
64857;SDS011;51335;51.148;6.950;2022-07-22T00:26:52;12.23;;;6.55;;
64857;SDS011;51335;51.148;6.950;2022-07-22T00:27:22;13.02;;;6.68;;
64857;SDS011;51335;51.148;6.950;2022-07-22T00:27:52;13.95;;;6.80;;
64857;SDS011;51335;51.148;6.950;2022-07-22T00:28:22;11.00;;;6.47;;
64857;SDS011;51335;51.148;6.950;2022-07-22T00:28:53;10.65;;;6.50;;
64857;SDS011;51335;51.148;6.950;2022-07-22T00:29:23;15.18;;;6.75;;
64857;SDS011;51335;51.148;6.950;2022-07-22T00:29:53;12.02;;;6.50;;
64857;SDS011;51335;51.148;6.950;2022-07-22T00:30:24;13.85;;;6.63;;
64857;SDS011;51335;51.148;6.950;2022-07-22T00:30:54;14.27;;;6.55;;
64857;SDS011;51335;51.148;6.950;2022-07-22T00:31:25;12.02;;;6.78;;
64857;SDS011;51335;51.148;6.950;2022-07-22T00:31:55;11.32;;;6.53;;
64857;SDS011;51335;51.148;6.950;2022-07-22T00:32:26;11.93;;;6.28;;
64857;SDS011;51335;51.148;6.950;2022-07-22T00:32:56;10.70;;;6.57;;
64857;SDS011;51335;51.148;6.950;2022-07-22T00:33:26;11.60;;;6.53;;
64857;SDS011;51335;51.148;6.950;2022-07-22T00:33:57;13.05;;;6.78;;
64857;SDS011;51335;51.148;6.950;2022-07-22T00:34:29;11.02;;;5.80;;
64857;SDS011;51335;51.148;6.950;2022-07-22T00:34:59;12.35;;;6.53;;
64857;SDS011;51335;51.148;6.950;2022-07-22T00:35:30;11.82;;;6.35;;
64857;SDS011;51335;51.148;6.950;2022-07-22T00:36:00;12.20;;;6.63;;
64857;SDS011;51335;51.148;6.950;2022-07-22T00:36:30;10.05;;;6.50;;
64857;SDS011;51335;51.148;6.950;2022-07-22T00:37:01;12.25;;;6.70;;
64857;SDS011;51335;51.148;6.950;2022-07-22T00:37:31;11.23;;;6.93;;
64857;SDS011;51335;51.148;6.950;2022-07-22T00:38:01;12.45;;;6.60;;
64857;SDS011;51335;51.148;6.950;2022-07-22T00:38:32;12.55;;;6.32;;
64857;SDS011;51335;51.148;6.950;2022-07-22T00:39:02;11.85;;;6.50;;
64857;SDS011;51335;51.148;6.950;2022-07-22T00:39:33;8.93;;;6.00;;
64857;SDS011;51335;51.148;6.950;2022-07-22T00:40:03;13.63;;;6.30;;
64857;SDS011;51335;51.148;6.950;2022-07-22T00:40:34;17.67;;;6.57;;
64857;SDS011;51335;51.148;6.950;2022-07-22T00:41:05;14.15;;;6.75;;
64857;SDS011;51335;51.148;6.950;2022-07-22T00:41:35;14.65;;;6.75;;
64857;SDS011;51335;51.148;6.950;2022-07-22T00:42:06;11.73;;;6.57;;
64857;SDS011;51335;51.148;6.950;2022-07-22T00:42:36;13.02;;;6.22;;
64857;SDS011;51335;51.148;6.950;2022-07-22T00:43:06;11.65;;;6.40;;
64857;SDS011;51335;51.148;6.950;2022-07-22T00:44:21;12.18;;;6.05;;
64857;SDS011;51335;51.148;6.950;2022-07-22T00:44:51;11.77;;;6.60;;
64857;SDS011;51335;51.148;6.950;2022-07-22T00:45:21;12.45;;;6.22;;
64857;SDS011;51335;51.148;6.950;2022-07-22T00:45:52;12.07;;;6.35;;
64857;SDS011;51335;51.148;6.950;2022-07-22T00:46:22;12.15;;;6.63;;
64857;SDS011;51335;51.148;6.950;2022-07-22T00:46:53;13.48;;;6.45;;
64857;SDS011;51335;51.148;6.950;2022-07-22T00:47:23;12.32;;;6.38;;
64857;SDS011;51335;51.148;6.950;2022-07-22T00:47:53;13.88;;;6.70;;
64857;SDS011;51335;51.148;6.950;2022-07-22T00:48:24;10.52;;;6.40;;
64857;SDS011;51335;51.148;6.950;2022-07-22T00:48:54;13.18;;;7.00;;
64857;SDS011;51335;51.148;6.950;2022-07-22T00:49:25;9.85;;;6.25;;
64857;SDS011;51335;51.148;6.950;2022-07-22T00:49:55;13.20;;;6.68;;
64857;SDS011;51335;51.148;6.950;2022-07-22T00:50:25;10.45;;;6.15;;
64857;SDS011;51335;51.148;6.950;2022-07-22T00:50:56;9.57;;;5.78;;
64857;SDS011;51335;51.148;6.950;2022-07-22T00:51:27;11.55;;;6.18;;
64857;SDS011;51335;51.148;6.950;2022-07-22T00:51:58;13.82;;;6.30;;
64857;SDS011;51335;51.148;6.950;2022-07-22T00:52:29;13.40;;;6.25;;
64857;SDS011;51335;51.148;6.950;2022-07-22T00:53:00;14.18;;;6.38;;
64857;SDS011;51335;51.148;6.950;2022-07-22T00:53:31;14.73;;;6.30;;
64857;SDS011;51335;51.148;6.950;2022-07-22T00:54:01;14.88;;;6.65;;
64857;SDS011;51335;51.148;6.950;2022-07-22T00:54:33;10.70;;;6.72;;
64857;SDS011;51335;51.148;6.950;2022-07-22T00:55:04;13.32;;;6.85;;
64857;SDS011;51335;51.148;6.950;2022-07-22T00:55:35;12.55;;;7.28;;
64857;SDS011;51335;51.148;6.950;2022-07-22T00:56:06;11.80;;;7.50;;
64857;SDS011;51335;51.148;6.950;2022-07-22T00:56:37;14.90;;;6.97;;
64857;SDS011;51335;51.148;6.950;2022-07-22T00:57:08;12.73;;;7.07;;
64857;SDS011;51335;51.148;6.950;2022-07-22T00:57:38;13.70;;;7.20;;
64857;SDS011;51335;51.148;6.950;2022-07-22T00:58:08;13.63;;;7.50;;
64857;SDS011;51335;51.148;6.950;2022-07-22T00:58:39;13.93;;;7.90;;
64857;SDS011;51335;51.148;6.950;2022-07-22T00:59:10;13.45;;;7.55;;
64857;SDS011;51335;51.148;6.950;2022-07-22T00:59:41;14.32;;;7.78;;
64857;SDS011;51335;51.148;6.950;2022-07-22T01:00:14;14.30;;;8.05;;
64857;SDS011;51335;51.148;6.950;2022-07-22T01:00:46;16.00;;;8.20;;
64857;SDS011;51335;51.148;6.950;2022-07-22T01:01:17;13.65;;;8.27;;
64857;SDS011;51335;51.148;6.950;2022-07-22T01:01:47;15.20;;;8.30;;
64857;SDS011;51335;51.148;6.950;2022-07-22T01:02:17;14.02;;;8.55;;
64857;SDS011;51335;51.148;6.950;2022-07-22T01:02:48;16.65;;;8.50;;
64857;SDS011;51335;51.148;6.950;2022-07-22T01:03:18;12.90;;;8.70;;
64857;SDS011;51335;51.148;6.950;2022-07-22T01:03:48;20.23;;;9.05;;
64857;SDS011;51335;51.148;6.950;2022-07-22T01:04:19;16.80;;;8.55;;
64857;SDS011;51335;51.148;6.950;2022-07-22T01:04:49;15.02;;;9.15;;
64857;SDS011;51335;51.148;6.950;2022-07-22T01:05:20;18.35;;;8.77;;
64857;SDS011;51335;51.148;6.950;2022-07-22T01:05:50;14.80;;;8.80;;
64857;SDS011;51335;51.148;6.950;2022-07-22T01:06:20;16.02;;;8.57;;
64857;SDS011;51335;51.148;6.950;2022-07-22T01:06:51;14.55;;;7.80;;
64857;SDS011;51335;51.148;6.950;2022-07-22T01:07:21;18.13;;;8.07;;
64857;SDS011;51335;51.148;6.950;2022-07-22T01:07:51;18.88;;;8.32;;
64857;SDS011;51335;51.148;6.950;2022-07-22T01:08:21;18.20;;;8.13;;
64857;SDS011;51335;51.148;6.950;2022-07-22T01:08:52;17.25;;;8.23;;
64857;SDS011;51335;51.148;6.950;2022-07-22T01:09:24;13.80;;;7.95;;
64857;SDS011;51335;51.148;6.950;2022-07-22T01:09:54;15.38;;;8.43;;
64857;SDS011;51335;51.148;6.950;2022-07-22T01:10:25;13.35;;;8.30;;
64857;SDS011;51335;51.148;6.950;2022-07-22T01:11:05;14.30;;;7.78;;
64857;SDS011;51335;51.148;6.950;2022-07-22T01:11:36;16.63;;;8.60;;
64857;SDS011;51335;51.148;6.950;2022-07-22T01:12:07;18.90;;;8.82;;
64857;SDS011;51335;51.148;6.950;2022-07-22T01:12:37;15.55;;;8.38;;
64857;SDS011;51335;51.148;6.950;2022-07-22T01:13:08;16.65;;;8.75;;
64857;SDS011;51335;51.148;6.950;2022-07-22T01:13:38;14.90;;;8.85;;
64857;SDS011;51335;51.148;6.950;2022-07-22T01:14:09;16.20;;;8.68;;
64857;SDS011;51335;51.148;6.950;2022-07-22T01:14:40;17.13;;;8.77;;
64857;SDS011;51335;51.148;6.950;2022-07-22T01:15:10;15.77;;;8.57;;
64857;SDS011;51335;51.148;6.950;2022-07-22T01:15:40;14.77;;;8.52;;
64857;SDS011;51335;51.148;6.950;2022-07-22T01:16:12;15.68;;;8.80;;
64857;SDS011;51335;51.148;6.950;2022-07-22T01:16:43;19.35;;;9.00;;
64857;SDS011;51335;51.148;6.950;2022-07-22T01:17:13;15.30;;;8.73;;
64857;SDS011;51335;51.148;6.950;2022-07-22T01:17:44;17.75;;;8.80;;
64857;SDS011;51335;51.148;6.950;2022-07-22T01:18:14;17.85;;;9.45;;
64857;SDS011;51335;51.148;6.950;2022-07-22T01:18:44;19.25;;;9.43;;
64857;SDS011;51335;51.148;6.950;2022-07-22T01:19:16;16.98;;;9.00;;
64857;SDS011;51335;51.148;6.950;2022-07-22T01:19:46;16.35;;;9.32;;
64857;SDS011;51335;51.148;6.950;2022-07-22T01:20:17;13.80;;;8.73;;
64857;SDS011;51335;51.148;6.950;2022-07-22T01:20:47;14.82;;;9.65;;
64857;SDS011;51335;51.148;6.950;2022-07-22T01:21:17;17.25;;;9.40;;
64857;SDS011;51335;51.148;6.950;2022-07-22T01:21:48;17.25;;;9.00;;
64857;SDS011;51335;51.148;6.950;2022-07-22T01:22:18;18.23;;;9.85;;
64857;SDS011;51335;51.148;6.950;2022-07-22T01:22:48;17.73;;;9.68;;
64857;SDS011;51335;51.148;6.950;2022-07-22T01:23:18;18.23;;;9.27;;
64857;SDS011;51335;51.148;6.950;2022-07-22T01:23:49;18.23;;;10.10;;
64857;SDS011;51335;51.148;6.950;2022-07-22T01:24:20;18.67;;;9.73;;
64857;SDS011;51335;51.148;6.950;2022-07-22T01:24:50;16.85;;;9.90;;
64857;SDS011;51335;51.148;6.950;2022-07-22T01:25:20;15.02;;;9.48;;
64857;SDS011;51335;51.148;6.950;2022-07-22T01:25:51;15.70;;;9.48;;
64857;SDS011;51335;51.148;6.950;2022-07-22T01:26:21;18.27;;;10.00;;
64857;SDS011;51335;51.148;6.950;2022-07-22T01:26:52;20.13;;;9.50;;
64857;SDS011;51335;51.148;6.950;2022-07-22T01:27:22;15.15;;;10.10;;
64857;SDS011;51335;51.148;6.950;2022-07-22T01:27:53;17.48;;;9.93;;
64857;SDS011;51335;51.148;6.950;2022-07-22T01:28:23;16.55;;;9.68;;
64857;SDS011;51335;51.148;6.950;2022-07-22T01:28:54;17.15;;;10.30;;
64857;SDS011;51335;51.148;6.950;2022-07-22T01:29:24;16.13;;;9.77;;
64857;SDS011;51335;51.148;6.950;2022-07-22T01:29:54;17.23;;;10.02;;
64857;SDS011;51335;51.148;6.950;2022-07-22T01:30:25;20.88;;;10.65;;
64857;SDS011;51335;51.148;6.950;2022-07-22T01:30:55;16.65;;;10.68;;
64857;SDS011;51335;51.148;6.950;2022-07-22T01:31:25;19.83;;;10.82;;
64857;SDS011;51335;51.148;6.950;2022-07-22T01:31:56;16.50;;;10.35;;
64857;SDS011;51335;51.148;6.950;2022-07-22T01:32:26;18.85;;;11.05;;
64857;SDS011;51335;51.148;6.950;2022-07-22T01:32:56;22.95;;;11.48;;
64857;SDS011;51335;51.148;6.950;2022-07-22T01:33:26;18.60;;;10.20;;
64857;SDS011;51335;51.148;6.950;2022-07-22T01:33:57;17.98;;;10.13;;
64857;SDS011;51335;51.148;6.950;2022-07-22T01:34:27;23.40;;;11.10;;
64857;SDS011;51335;51.148;6.950;2022-07-22T01:34:57;20.92;;;10.52;;
64857;SDS011;51335;51.148;6.950;2022-07-22T01:35:28;17.85;;;9.82;;
64857;SDS011;51335;51.148;6.950;2022-07-22T01:35:58;19.10;;;10.18;;
64857;SDS011;51335;51.148;6.950;2022-07-22T01:36:28;19.00;;;10.30;;
64857;SDS011;51335;51.148;6.950;2022-07-22T01:36:59;19.27;;;11.38;;
64857;SDS011;51335;51.148;6.950;2022-07-22T01:37:29;17.13;;;10.98;;
64857;SDS011;51335;51.148;6.950;2022-07-22T01:38:01;17.33;;;11.10;;
64857;SDS011;51335;51.148;6.950;2022-07-22T01:38:31;19.73;;;11.27;;
64857;SDS011;51335;51.148;6.950;2022-07-22T01:39:02;19.85;;;10.80;;
64857;SDS011;51335;51.148;6.950;2022-07-22T01:39:32;15.23;;;10.18;;
64857;SDS011;51335;51.148;6.950;2022-07-22T01:40:03;14.35;;;6.80;;
64857;SDS011;51335;51.148;6.950;2022-07-22T01:40:34;13.00;;;7.47;;
64857;SDS011;51335;51.148;6.950;2022-07-22T01:41:04;15.02;;;8.18;;
64857;SDS011;51335;51.148;6.950;2022-07-22T01:41:35;11.02;;;7.65;;
64857;SDS011;51335;51.148;6.950;2022-07-22T01:42:05;14.80;;;8.02;;
64857;SDS011;51335;51.148;6.950;2022-07-22T01:42:35;12.45;;;7.53;;
64857;SDS011;51335;51.148;6.950;2022-07-22T01:43:06;8.98;;;5.38;;
64857;SDS011;51335;51.148;6.950;2022-07-22T01:43:36;10.60;;;5.70;;
64857;SDS011;51335;51.148;6.950;2022-07-22T01:44:06;10.43;;;6.50;;
64857;SDS011;51335;51.148;6.950;2022-07-22T01:44:37;10.63;;;6.40;;
64857;SDS011;51335;51.148;6.950;2022-07-22T01:45:07;10.07;;;6.10;;
64857;SDS011;51335;51.148;6.950;2022-07-22T01:45:38;9.38;;;6.20;;
64857;SDS011;51335;51.148;6.950;2022-07-22T01:46:09;10.45;;;6.55;;
64857;SDS011;51335;51.148;6.950;2022-07-22T01:46:39;11.77;;;6.20;;
64857;SDS011;51335;51.148;6.950;2022-07-22T01:47:09;11.48;;;6.50;;
64857;SDS011;51335;51.148;6.950;2022-07-22T01:47:40;9.85;;;6.28;;
64857;SDS011;51335;51.148;6.950;2022-07-22T01:48:10;11.88;;;6.00;;
64857;SDS011;51335;51.148;6.950;2022-07-22T01:48:40;10.80;;;6.38;;
64857;SDS011;51335;51.148;6.950;2022-07-22T01:49:11;11.07;;;6.60;;
64857;SDS011;51335;51.148;6.950;2022-07-22T01:49:41;9.52;;;6.47;;
64857;SDS011;51335;51.148;6.950;2022-07-22T01:50:11;11.57;;;6.28;;
64857;SDS011;51335;51.148;6.950;2022-07-22T01:50:42;15.45;;;6.70;;
64857;SDS011;51335;51.148;6.950;2022-07-22T01:51:13;11.05;;;6.80;;
64857;SDS011;51335;51.148;6.950;2022-07-22T01:51:43;10.90;;;6.88;;
64857;SDS011;51335;51.148;6.950;2022-07-22T01:52:14;12.35;;;7.22;;
64857;SDS011;51335;51.148;6.950;2022-07-22T01:52:44;14.32;;;7.22;;
64857;SDS011;51335;51.148;6.950;2022-07-22T01:53:15;11.88;;;7.68;;
64857;SDS011;51335;51.148;6.950;2022-07-22T01:53:45;14.68;;;8.18;;
64857;SDS011;51335;51.148;6.950;2022-07-22T01:54:16;15.70;;;8.30;;
64857;SDS011;51335;51.148;6.950;2022-07-22T01:54:46;13.57;;;7.75;;
64857;SDS011;51335;51.148;6.950;2022-07-22T01:55:16;14.98;;;8.40;;
64857;SDS011;51335;51.148;6.950;2022-07-22T01:55:47;13.13;;;8.35;;
64857;SDS011;51335;51.148;6.950;2022-07-22T01:56:18;13.55;;;8.50;;
64857;SDS011;51335;51.148;6.950;2022-07-22T01:56:48;14.82;;;8.27;;
64857;SDS011;51335;51.148;6.950;2022-07-22T01:57:18;12.30;;;8.02;;
64857;SDS011;51335;51.148;6.950;2022-07-22T01:57:49;15.35;;;7.82;;
64857;SDS011;51335;51.148;6.950;2022-07-22T01:58:19;14.95;;;8.13;;
64857;SDS011;51335;51.148;6.950;2022-07-22T01:58:49;13.13;;;8.18;;
64857;SDS011;51335;51.148;6.950;2022-07-22T01:59:20;14.60;;;8.70;;
64857;SDS011;51335;51.148;6.950;2022-07-22T01:59:50;16.55;;;8.77;;
64857;SDS011;51335;51.148;6.950;2022-07-22T02:00:20;16.83;;;9.52;;
64857;SDS011;51335;51.148;6.950;2022-07-22T02:00:51;14.38;;;8.48;;
64857;SDS011;51335;51.148;6.950;2022-07-22T02:01:21;12.77;;;8.63;;
64857;SDS011;51335;51.148;6.950;2022-07-22T02:01:52;15.07;;;8.77;;
64857;SDS011;51335;51.148;6.950;2022-07-22T02:02:22;12.15;;;7.80;;
64857;SDS011;51335;51.148;6.950;2022-07-22T02:02:52;15.50;;;8.68;;
64857;SDS011;51335;51.148;6.950;2022-07-22T02:03:22;15.35;;;8.85;;
64857;SDS011;51335;51.148;6.950;2022-07-22T02:03:53;16.48;;;8.90;;
64857;SDS011;51335;51.148;6.950;2022-07-22T02:04:23;15.25;;;8.93;;
64857;SDS011;51335;51.148;6.950;2022-07-22T02:04:53;13.57;;;8.52;;
64857;SDS011;51335;51.148;6.950;2022-07-22T02:05:23;16.10;;;8.95;;
64857;SDS011;51335;51.148;6.950;2022-07-22T02:05:54;14.23;;;8.52;;
64857;SDS011;51335;51.148;6.950;2022-07-22T02:06:24;13.73;;;8.35;;
64857;SDS011;51335;51.148;6.950;2022-07-22T02:06:54;15.38;;;8.85;;
64857;SDS011;51335;51.148;6.950;2022-07-22T02:07:25;17.33;;;9.35;;
64857;SDS011;51335;51.148;6.950;2022-07-22T02:07:59;19.02;;;9.25;;
64857;SDS011;51335;51.148;6.950;2022-07-22T02:08:39;14.95;;;8.30;;
64857;SDS011;51335;51.148;6.950;2022-07-22T02:09:10;15.00;;;9.27;;
64857;SDS011;51335;51.148;6.950;2022-07-22T02:09:40;14.98;;;9.07;;
64857;SDS011;51335;51.148;6.950;2022-07-22T02:10:10;16.13;;;9.40;;
64857;SDS011;51335;51.148;6.950;2022-07-22T02:10:41;16.50;;;10.20;;
64857;SDS011;51335;51.148;6.950;2022-07-22T02:11:11;17.67;;;9.70;;
64857;SDS011;51335;51.148;6.950;2022-07-22T02:11:41;15.82;;;9.38;;
64857;SDS011;51335;51.148;6.950;2022-07-22T02:12:12;16.05;;;9.70;;
64857;SDS011;51335;51.148;6.950;2022-07-22T02:12:42;16.67;;;10.10;;
64857;SDS011;51335;51.148;6.950;2022-07-22T02:13:12;20.02;;;10.35;;
64857;SDS011;51335;51.148;6.950;2022-07-22T02:13:43;16.60;;;10.25;;
64857;SDS011;51335;51.148;6.950;2022-07-22T02:14:13;17.95;;;10.15;;
64857;SDS011;51335;51.148;6.950;2022-07-22T02:14:43;19.80;;;10.82;;
64857;SDS011;51335;51.148;6.950;2022-07-22T02:15:14;17.50;;;10.05;;
64857;SDS011;51335;51.148;6.950;2022-07-22T02:15:44;20.30;;;10.52;;
64857;SDS011;51335;51.148;6.950;2022-07-22T02:16:14;16.00;;;10.35;;
64857;SDS011;51335;51.148;6.950;2022-07-22T02:16:44;18.90;;;10.20;;
64857;SDS011;51335;51.148;6.950;2022-07-22T02:17:15;17.45;;;10.90;;
64857;SDS011;51335;51.148;6.950;2022-07-22T02:17:45;18.67;;;10.20;;
64857;SDS011;51335;51.148;6.950;2022-07-22T02:18:16;17.08;;;10.32;;
64857;SDS011;51335;51.148;6.950;2022-07-22T02:18:47;19.50;;;10.52;;
64857;SDS011;51335;51.148;6.950;2022-07-22T02:19:18;18.20;;;10.13;;
64857;SDS011;51335;51.148;6.950;2022-07-22T02:19:48;15.70;;;10.70;;
64857;SDS011;51335;51.148;6.950;2022-07-22T02:20:18;16.92;;;10.48;;
64857;SDS011;51335;51.148;6.950;2022-07-22T02:20:49;14.23;;;10.23;;
64857;SDS011;51335;51.148;6.950;2022-07-22T02:21:19;19.77;;;10.68;;
64857;SDS011;51335;51.148;6.950;2022-07-22T02:21:49;17.73;;;10.90;;
64857;SDS011;51335;51.148;6.950;2022-07-22T02:22:20;20.48;;;10.52;;
64857;SDS011;51335;51.148;6.950;2022-07-22T02:22:50;16.90;;;10.82;;
64857;SDS011;51335;51.148;6.950;2022-07-22T02:23:20;21.95;;;12.13;;
64857;SDS011;51335;51.148;6.950;2022-07-22T02:23:51;18.00;;;11.30;;
64857;SDS011;51335;51.148;6.950;2022-07-22T02:24:21;18.60;;;11.13;;
64857;SDS011;51335;51.148;6.950;2022-07-22T02:24:51;20.25;;;11.07;;
64857;SDS011;51335;51.148;6.950;2022-07-22T02:25:21;17.60;;;10.95;;
64857;SDS011;51335;51.148;6.950;2022-07-22T02:25:52;18.92;;;11.07;;
64857;SDS011;51335;51.148;6.950;2022-07-22T02:26:22;20.15;;;10.80;;
64857;SDS011;51335;51.148;6.950;2022-07-22T02:26:52;19.70;;;11.32;;
64857;SDS011;51335;51.148;6.950;2022-07-22T02:27:23;17.92;;;11.23;;
64857;SDS011;51335;51.148;6.950;2022-07-22T02:27:53;21.20;;;11.43;;
64857;SDS011;51335;51.148;6.950;2022-07-22T02:28:23;20.08;;;11.77;;
64857;SDS011;51335;51.148;6.950;2022-07-22T02:28:54;18.05;;;11.32;;
64857;SDS011;51335;51.148;6.950;2022-07-22T02:29:24;22.00;;;11.88;;
64857;SDS011;51335;51.148;6.950;2022-07-22T02:29:55;17.35;;;11.57;;
64857;SDS011;51335;51.148;6.950;2022-07-22T02:30:25;22.80;;;11.95;;
64857;SDS011;51335;51.148;6.950;2022-07-22T02:30:56;22.08;;;11.73;;
64857;SDS011;51335;51.148;6.950;2022-07-22T02:31:26;18.80;;;11.40;;
64857;SDS011;51335;51.148;6.950;2022-07-22T02:31:57;20.42;;;11.10;;
64857;SDS011;51335;51.148;6.950;2022-07-22T02:32:27;20.23;;;11.63;;
64857;SDS011;51335;51.148;6.950;2022-07-22T02:32:57;21.23;;;12.00;;
64857;SDS011;51335;51.148;6.950;2022-07-22T02:33:28;23.00;;;12.52;;
64857;SDS011;51335;51.148;6.950;2022-07-22T02:33:58;18.98;;;11.85;;
64857;SDS011;51335;51.148;6.950;2022-07-22T02:34:28;20.88;;;12.07;;
64857;SDS011;51335;51.148;6.950;2022-07-22T02:34:59;18.33;;;12.40;;
64857;SDS011;51335;51.148;6.950;2022-07-22T02:35:29;20.92;;;12.30;;
64857;SDS011;51335;51.148;6.950;2022-07-22T02:35:59;20.83;;;12.18;;
64857;SDS011;51335;51.148;6.950;2022-07-22T02:36:30;23.95;;;12.18;;
64857;SDS011;51335;51.148;6.950;2022-07-22T02:37:00;21.90;;;12.75;;
64857;SDS011;51335;51.148;6.950;2022-07-22T02:37:31;17.55;;;11.77;;
64857;SDS011;51335;51.148;6.950;2022-07-22T02:38:01;23.85;;;12.45;;
64857;SDS011;51335;51.148;6.950;2022-07-22T02:38:31;26.23;;;12.98;;
64857;SDS011;51335;51.148;6.950;2022-07-22T02:39:02;21.95;;;12.55;;
64857;SDS011;51335;51.148;6.950;2022-07-22T02:39:33;20.20;;;12.73;;
64857;SDS011;51335;51.148;6.950;2022-07-22T02:40:04;24.13;;;13.30;;
64857;SDS011;51335;51.148;6.950;2022-07-22T02:40:35;18.38;;;12.02;;
64857;SDS011;51335;51.148;6.950;2022-07-22T02:41:05;21.83;;;12.85;;
64857;SDS011;51335;51.148;6.950;2022-07-22T02:41:36;22.83;;;12.50;;
64857;SDS011;51335;51.148;6.950;2022-07-22T02:42:06;27.63;;;12.75;;
64857;SDS011;51335;51.148;6.950;2022-07-22T02:42:36;22.70;;;12.55;;
64857;SDS011;51335;51.148;6.950;2022-07-22T02:43:07;18.88;;;12.50;;
64857;SDS011;51335;51.148;6.950;2022-07-22T02:43:37;23.55;;;12.93;;
64857;SDS011;51335;51.148;6.950;2022-07-22T02:44:07;23.40;;;12.68;;
64857;SDS011;51335;51.148;6.950;2022-07-22T02:44:37;24.80;;;13.00;;
64857;SDS011;51335;51.148;6.950;2022-07-22T02:45:08;20.38;;;12.82;;
64857;SDS011;51335;51.148;6.950;2022-07-22T02:45:38;24.10;;;13.70;;
64857;SDS011;51335;51.148;6.950;2022-07-22T02:46:09;22.55;;;13.43;;
64857;SDS011;51335;51.148;6.950;2022-07-22T02:46:39;23.02;;;13.50;;
64857;SDS011;51335;51.148;6.950;2022-07-22T02:47:09;25.30;;;13.43;;
64857;SDS011;51335;51.148;6.950;2022-07-22T02:47:49;18.50;;;12.02;;
64857;SDS011;51335;51.148;6.950;2022-07-22T02:48:23;24.58;;;13.18;;
64857;SDS011;51335;51.148;6.950;2022-07-22T02:48:53;26.00;;;12.95;;
64857;SDS011;51335;51.148;6.950;2022-07-22T02:49:24;25.17;;;12.80;;
64857;SDS011;51335;51.148;6.950;2022-07-22T02:49:54;22.05;;;12.77;;
64857;SDS011;51335;51.148;6.950;2022-07-22T02:50:24;21.95;;;12.85;;
64857;SDS011;51335;51.148;6.950;2022-07-22T02:50:55;31.88;;;13.40;;
64857;SDS011;51335;51.148;6.950;2022-07-22T02:51:26;22.00;;;12.77;;
64857;SDS011;51335;51.148;6.950;2022-07-22T02:51:56;24.10;;;13.23;;
64857;SDS011;51335;51.148;6.950;2022-07-22T02:52:27;22.02;;;12.88;;
64857;SDS011;51335;51.148;6.950;2022-07-22T02:52:57;25.02;;;12.77;;
64857;SDS011;51335;51.148;6.950;2022-07-22T02:53:27;23.45;;;13.18;;
64857;SDS011;51335;51.148;6.950;2022-07-22T02:53:58;22.45;;;12.75;;
64857;SDS011;51335;51.148;6.950;2022-07-22T02:54:28;19.00;;;12.38;;
64857;SDS011;51335;51.148;6.950;2022-07-22T02:54:58;25.90;;;14.05;;
64857;SDS011;51335;51.148;6.950;2022-07-22T02:55:29;23.33;;;12.98;;
64857;SDS011;51335;51.148;6.950;2022-07-22T02:55:59;21.75;;;12.77;;
64857;SDS011;51335;51.148;6.950;2022-07-22T02:56:29;23.27;;;12.85;;
64857;SDS011;51335;51.148;6.950;2022-07-22T02:56:59;22.95;;;12.15;;
64857;SDS011;51335;51.148;6.950;2022-07-22T02:57:30;19.83;;;12.25;;
64857;SDS011;51335;51.148;6.950;2022-07-22T02:58:04;20.25;;;12.35;;
64857;SDS011;51335;51.148;6.950;2022-07-22T02:58:35;18.48;;;12.13;;
64857;SDS011;51335;51.148;6.950;2022-07-22T02:59:05;16.85;;;12.07;;
64857;SDS011;51335;51.148;6.950;2022-07-22T02:59:35;24.15;;;12.57;;
64857;SDS011;51335;51.148;6.950;2022-07-22T03:00:06;20.13;;;12.18;;
64857;SDS011;51335;51.148;6.950;2022-07-22T03:00:37;20.88;;;12.73;;
64857;SDS011;51335;51.148;6.950;2022-07-22T03:01:08;22.38;;;12.70;;